createdAt,value
2019-05-30T00:00:18.038Z,100571.39
2019-05-30T00:02:49.338Z,100573.45
2019-05-30T00:05:20.718Z,100572.64
2019-05-30T00:07:51.489Z,100572.98
2019-05-30T00:10:22.327Z,100565.29
2019-05-30T00:12:54.584Z,100564.15
2019-05-30T00:15:25.673Z,100561.95
2019-05-30T00:17:56.953Z,100563.97
2019-05-30T00:20:28.066Z,100561.02
2019-05-30T00:22:59.100Z,100567.93
2019-05-30T00:25:29.898Z,100562.06
2019-05-30T00:28:01.408Z,100557.73
2019-05-30T00:30:32.227Z,100565.14
2019-05-30T00:33:03.863Z,100570.27
2019-05-30T00:35:35.949Z,100565.16
2019-05-30T00:38:06.881Z,100566.46
2019-05-30T00:40:37.816Z,100568.98
2019-05-30T00:43:08.939Z,100566.11
2019-05-30T00:45:40.293Z,100557.94
2019-05-30T00:48:12.060Z,100563.25
2019-05-30T00:50:43.096Z,100564.05
2019-05-30T00:53:14.235Z,100570.75
2019-05-30T00:55:45.255Z,100559.24
2019-05-30T00:58:16.197Z,100557.95
2019-05-30T01:00:47.283Z,100563.33
2019-05-30T01:03:18.098Z,100558.13
2019-05-30T01:05:48.893Z,100558.33
2019-05-30T01:08:19.773Z,100557.30
2019-05-30T01:10:51.046Z,100558.05
2019-05-30T01:13:22.428Z,100557.41
2019-05-30T01:15:53.728Z,100551.64
2019-05-30T01:18:24.881Z,100552.48
2019-05-30T01:20:57.012Z,100555.16
2019-05-30T01:23:27.825Z,100554.22
2019-05-30T01:25:59.295Z,100553.84
2019-05-30T01:28:30.257Z,100544.43
2019-05-30T01:31:07.340Z,100543.43
2019-05-30T01:33:34.816Z,100547.33
2019-05-30T01:36:05.868Z,100545.13
2019-05-30T01:38:36.903Z,100548.08
2019-05-30T01:41:08.115Z,100542.08
2019-05-30T01:43:38.949Z,100550.02
2019-05-30T01:46:10.375Z,100542.68
2019-05-30T01:48:41.181Z,100541.03
2019-05-30T01:51:12.043Z,100543.38
2019-05-30T01:53:42.913Z,100545.59
2019-05-30T01:56:13.768Z,100536.42
2019-05-30T01:58:44.571Z,100534.81
2019-05-30T02:01:24.336Z,100543.45
2019-05-30T02:03:47.857Z,100544.03
2019-05-30T02:06:18.948Z,100541.05
2019-05-30T02:08:49.749Z,100538.11
2019-05-30T02:11:20.863Z,100540.71
2019-05-30T02:13:53.418Z,100540.44
2019-05-30T02:16:24.214Z,100543.30
2019-05-30T02:18:55.016Z,100539.68
2019-05-30T02:21:26.054Z,100536.08
2019-05-30T02:23:57.132Z,100534.78
2019-05-30T02:26:28.166Z,100536.70
2019-05-30T02:28:59.960Z,100530.52
2019-05-30T02:31:39.083Z,100531.05
2019-05-30T02:34:07.619Z,100532.54
2019-05-30T02:36:38.752Z,100528.83
2019-05-30T02:39:10.312Z,100539.30
2019-05-30T02:41:43.175Z,100538.11
2019-05-30T02:44:14.375Z,100536.32
2019-05-30T02:46:45.485Z,100538.45
2019-05-30T02:49:16.374Z,100538.08
2019-05-30T02:51:47.186Z,100534.55
2019-05-30T02:54:18.551Z,100540.67
2019-05-30T02:56:49.521Z,100537.14
2019-05-30T02:59:20.392Z,100541.23
2019-05-30T03:02:00.796Z,100540.32
2019-05-30T03:04:24.252Z,100539.28
2019-05-30T03:06:55.127Z,100538.18
2019-05-30T03:09:25.989Z,100542.55
2019-05-30T03:11:57.099Z,100544.23
2019-05-30T03:14:27.977Z,100550.99
2019-05-30T03:16:59.315Z,100549.61
2019-05-30T03:19:30.426Z,100552.58
2019-05-30T03:22:03.366Z,100556.56
2019-05-30T03:24:34.846Z,100561.27
2019-05-30T03:27:07.072Z,100564.44
2019-05-30T03:29:38.884Z,100570.75
2019-05-30T03:32:57.499Z,100570.02
2019-05-30T03:34:43.518Z,100571.77
2019-05-30T03:37:26.471Z,100570.28
2019-05-30T03:39:46.937Z,100572.59
2019-05-30T03:42:17.842Z,100572.69
2019-05-30T03:44:48.713Z,100577.22
2019-05-30T03:47:20.035Z,100572.96
2019-05-30T03:49:51.420Z,100575.56
2019-05-30T03:52:23.712Z,100583.92
2019-05-30T03:54:54.946Z,100589.30
2019-05-30T03:57:30.537Z,100596.33
2019-05-30T04:00:05.998Z,100595.41
2019-05-30T04:02:57.069Z,100597.81
2019-05-30T04:05:22.477Z,100601.05
2019-05-30T04:07:55.272Z,100597.46
2019-05-30T04:10:29.077Z,100607.08
2019-05-30T04:13:12.263Z,100606.73
2019-05-30T04:15:43.818Z,100606.73
2019-05-30T04:18:16.417Z,100611.16
2019-05-30T04:20:48.804Z,100608.84
2019-05-30T04:23:19.716Z,100605.25
2019-05-30T04:25:50.820Z,100613.52
2019-05-30T04:28:21.870Z,100615.10
2019-05-30T04:30:53.008Z,100617.70
2019-05-30T04:33:32.290Z,100619.83
2019-05-30T04:35:56.366Z,100619.56
2019-05-30T04:38:27.228Z,100620.11
2019-05-30T04:40:58.109Z,100619.38
2019-05-30T04:43:29.142Z,100620.88
2019-05-30T04:46:00.426Z,100621.03
2019-05-30T04:48:31.958Z,100616.22
2019-05-30T04:51:02.778Z,100616.59
2019-05-30T04:53:33.899Z,100614.34
2019-05-30T04:56:04.867Z,100615.64
2019-05-30T04:58:41.221Z,100612.31
2019-05-30T05:01:08.704Z,100618.62
2019-05-30T05:03:45.778Z,100616.67
2019-05-30T05:06:13.792Z,100614.52
2019-05-30T05:08:44.942Z,100615.37
2019-05-30T05:11:18.697Z,100621.94
2019-05-30T05:13:48.415Z,100628.08
2019-05-30T05:16:31.070Z,100626.39
2019-05-30T05:18:53.292Z,100626.56
2019-05-30T05:21:24.106Z,100634.88
2019-05-30T05:23:55.565Z,100638.39
2019-05-30T05:26:26.869Z,100636.66
2019-05-30T05:28:57.915Z,100639.42
2019-05-30T05:31:29.016Z,100643.04
2019-05-30T05:34:00.082Z,100646.54
2019-05-30T05:36:30.883Z,100641.88
2019-05-30T05:39:01.682Z,100641.50
2019-05-30T05:41:33.991Z,100647.47
2019-05-30T05:44:05.054Z,100645.38
2019-05-30T05:46:35.950Z,100647.56
2019-05-30T05:49:07.067Z,100648.52
2019-05-30T05:51:37.945Z,100643.06
2019-05-30T05:54:09.292Z,100653.06
2019-05-30T05:56:40.431Z,100650.64
2019-05-30T05:59:11.307Z,100652.56
2019-05-30T06:01:42.384Z,100658.56
2019-05-30T06:04:13.843Z,100659.62
2019-05-30T06:06:44.758Z,100660.70
2019-05-30T06:09:16.483Z,100661.80
2019-05-30T06:11:49.127Z,100660.36
2019-05-30T06:14:21.785Z,100664.98
2019-05-30T06:16:55.732Z,100666.86
2019-05-30T06:19:25.520Z,100678.29
2019-05-30T06:21:56.332Z,100678.86
2019-05-30T06:24:27.899Z,100674.83
2019-05-30T06:26:58.756Z,100688.13
2019-05-30T06:29:29.549Z,100686.23
2019-05-30T06:32:00.851Z,100686.60
2019-05-30T06:34:38.776Z,100678.66
2019-05-30T06:37:05.917Z,100698.34
2019-05-30T06:39:36.961Z,100696.33
2019-05-30T06:42:08.070Z,100689.78
2019-05-30T06:44:39.192Z,100689.78
2019-05-30T06:47:10.076Z,100698.73
2019-05-30T06:49:41.242Z,100696.78
2019-05-30T06:52:12.127Z,100699.25
2019-05-30T06:54:43.450Z,100700.40
2019-05-30T06:57:14.465Z,100699.41
2019-05-30T06:59:45.328Z,100706.48
2019-05-30T07:02:16.433Z,100709.23
2019-05-30T07:04:52.151Z,100705.24
2019-05-30T07:07:20.097Z,100709.62
2019-05-30T07:09:50.989Z,100716.16
2019-05-30T07:12:22.978Z,100716.62
2019-05-30T07:14:54.046Z,100714.11
2019-05-30T07:17:25.239Z,100714.88
2019-05-30T07:19:56.277Z,100726.87
2019-05-30T07:22:27.746Z,100721.30
2019-05-30T07:24:58.558Z,100730.98
2019-05-30T07:27:29.904Z,100728.45
2019-05-30T07:30:01.259Z,100728.83
2019-05-30T07:32:32.209Z,100726.89
2019-05-30T07:35:07.265Z,100730.31
2019-05-30T07:37:35.981Z,100724.76
2019-05-30T07:40:09.865Z,100729.07
2019-05-30T07:42:40.656Z,100730.02
2019-05-30T07:45:12.215Z,100729.14
2019-05-30T07:47:44.226Z,100725.09
2019-05-30T07:50:15.580Z,100730.25
2019-05-30T07:52:46.376Z,100726.89
2019-05-30T07:55:17.259Z,100736.65
2019-05-30T07:57:48.312Z,100732.83
2019-05-30T08:00:19.789Z,100728.23
2019-05-30T08:02:50.662Z,100729.81
2019-05-30T08:05:24.467Z,100728.16
2019-05-30T08:07:54.104Z,100724.97
2019-05-30T08:10:24.895Z,100724.59
2019-05-30T08:12:56.245Z,100724.42
2019-05-30T08:15:27.374Z,100733.33
2019-05-30T08:17:58.267Z,100732.22
2019-05-30T08:20:29.636Z,100726.27
2019-05-30T08:23:00.447Z,100724.33
2019-05-30T08:25:32.206Z,100721.63
2019-05-30T08:28:03.074Z,100719.08
2019-05-30T08:30:34.595Z,100717.88
2019-05-30T08:33:05.718Z,100721.63
2019-05-30T08:35:48.742Z,100726.43
2019-05-30T08:38:09.024Z,100725.43
2019-05-30T08:40:39.890Z,100720.88
2019-05-30T08:43:11.905Z,100717.20
2019-05-30T08:45:42.693Z,100715.02
2019-05-30T08:48:13.589Z,100718.46
2019-05-30T08:50:44.881Z,100725.19
2019-05-30T08:53:16.026Z,100708.69
2019-05-30T08:55:47.378Z,100717.06
2019-05-30T08:58:18.320Z,100709.61
2019-05-30T09:00:49.444Z,100705.95
2019-05-30T09:03:20.315Z,100709.81
2019-05-30T09:06:03.006Z,100706.22
2019-05-30T09:08:24.100Z,100698.91
2019-05-30T09:10:54.968Z,100702.48
2019-05-30T09:13:25.986Z,100701.56
2019-05-30T09:15:56.850Z,100689.53
2019-05-30T09:18:27.716Z,100695.99
2019-05-30T09:20:58.842Z,100685.03
2019-05-30T09:23:29.606Z,100688.53
2019-05-30T09:26:00.635Z,100684.81
2019-05-30T09:28:31.580Z,100681.81
2019-05-30T09:31:02.441Z,100688.23
2019-05-30T09:33:33.542Z,100682.06
2019-05-30T09:36:13.029Z,100686.52
2019-05-30T09:38:37.404Z,100681.83
2019-05-30T09:41:08.566Z,100681.09
2019-05-30T09:43:39.881Z,100677.22
2019-05-30T09:46:11.932Z,100677.28
2019-05-30T09:48:43.733Z,100684.90
2019-05-30T09:51:16.021Z,100687.23
2019-05-30T09:53:46.829Z,100691.88
2019-05-30T09:56:17.891Z,100689.21
2019-05-30T09:58:49.775Z,100679.50
2019-05-30T10:01:21.633Z,100679.33
2019-05-30T10:03:52.669Z,100678.64
2019-05-30T10:06:29.641Z,100673.33
2019-05-30T10:08:56.539Z,100666.41
2019-05-30T10:11:27.482Z,100663.41
2019-05-30T10:13:59.533Z,100672.19
2019-05-30T10:16:30.851Z,100661.34
2019-05-30T10:19:01.642Z,100662.64
2019-05-30T10:21:32.780Z,100661.86
2019-05-30T10:24:03.924Z,100661.44
2019-05-30T10:26:34.800Z,100665.42
2019-05-30T10:29:05.673Z,100664.90
2019-05-30T10:31:36.576Z,100669.39
2019-05-30T10:34:07.550Z,100658.75
2019-05-30T10:36:44.295Z,100661.18
2019-05-30T10:39:11.461Z,100667.11
2019-05-30T10:41:42.336Z,100655.60
2019-05-30T10:44:13.201Z,100665.47
2019-05-30T10:46:44.089Z,100662.00
2019-05-30T10:49:14.950Z,100660.36
2019-05-30T10:51:47.774Z,100658.70
2019-05-30T10:54:18.612Z,100650.66
2019-05-30T10:56:50.002Z,100656.70
2019-05-30T10:59:21.061Z,100650.41
2019-05-30T11:01:53.035Z,100648.00
2019-05-30T11:04:24.044Z,100639.34
2019-05-30T11:07:18.180Z,100648.08
2019-05-30T11:09:54.841Z,100646.97
2019-05-30T11:12:26.109Z,100643.86
2019-05-30T11:14:57.867Z,100632.45
2019-05-30T11:17:28.947Z,100631.37
2019-05-30T11:20:00.004Z,100626.36
2019-05-30T11:22:31.386Z,100629.50
2019-05-30T11:25:02.180Z,100626.05
2019-05-30T11:27:33.049Z,100624.72
2019-05-30T11:30:04.578Z,100624.88
2019-05-30T11:32:35.487Z,100622.38
2019-05-30T11:35:06.722Z,100629.83
2019-05-30T11:37:37.747Z,100632.80
2019-05-30T11:40:09.896Z,100629.00
2019-05-30T11:42:40.905Z,100631.32
2019-05-30T11:45:12.731Z,100622.72
2019-05-30T11:47:44.085Z,100633.96
2019-05-30T11:50:15.359Z,100626.81
2019-05-30T11:52:46.206Z,100625.59
2019-05-30T11:55:17.137Z,100623.95
2019-05-30T11:57:48.013Z,100625.25
2019-05-30T12:00:18.952Z,100626.02
2019-05-30T12:02:50.223Z,100626.87
2019-05-30T12:05:21.341Z,100621.32
2019-05-30T12:07:52.794Z,100633.82
2019-05-30T12:10:24.129Z,100622.58
2019-05-30T12:12:55.341Z,100632.20
2019-05-30T12:15:26.268Z,100633.87
2019-05-30T12:17:57.466Z,100627.75
2019-05-30T12:20:29.601Z,100631.17
2019-05-30T12:23:02.122Z,100633.53
2019-05-30T12:25:34.438Z,100631.67
2019-05-30T12:28:05.395Z,100635.72
2019-05-30T12:30:36.246Z,100633.16
2019-05-30T12:33:07.374Z,100626.52
2019-05-30T12:35:38.509Z,100629.66
2019-05-30T12:38:09.612Z,100618.83
2019-05-30T12:40:40.438Z,100624.06
2019-05-30T12:43:11.602Z,100627.42
2019-05-30T12:45:42.732Z,100624.38
2019-05-30T12:48:13.533Z,100623.34
2019-05-30T12:50:44.337Z,100624.17
2019-05-30T12:53:15.451Z,100620.33
2019-05-30T12:55:46.596Z,100625.83
2019-05-30T12:58:17.660Z,100628.25
2019-05-30T13:00:48.932Z,100627.77
2019-05-30T13:03:20.060Z,100624.09
2019-05-30T13:05:50.852Z,100611.21
2019-05-30T13:08:22.252Z,100619.66
2019-05-30T13:10:55.363Z,100621.36
2019-05-30T13:13:26.255Z,100622.36
2019-05-30T13:15:57.206Z,100623.30
2019-05-30T13:18:28.329Z,100626.81
2019-05-30T13:20:59.992Z,100617.59
2019-05-30T13:23:30.850Z,100611.03
2019-05-30T13:26:02.043Z,100612.19
2019-05-30T13:28:32.763Z,100611.48
2019-05-30T13:31:04.494Z,100614.16
2019-05-30T13:33:38.301Z,100613.44
2019-05-30T13:36:08.252Z,100611.56
2019-05-30T13:38:39.275Z,100610.20
2019-05-30T13:41:10.317Z,100618.39
2019-05-30T13:43:41.172Z,100615.33
2019-05-30T13:46:11.982Z,100616.15
2019-05-30T13:48:42.943Z,100613.94
2019-05-30T13:51:14.044Z,100615.77
2019-05-30T13:53:45.178Z,100618.93
2019-05-30T13:56:16.680Z,100608.92
2019-05-30T13:58:47.703Z,100610.16
2019-05-30T14:01:18.808Z,100614.16
2019-05-30T14:03:50.536Z,100611.19
2019-05-30T14:06:21.416Z,100609.78
2019-05-30T14:08:53.029Z,100610.20
2019-05-30T14:11:23.908Z,100610.14
2019-05-30T14:13:55.046Z,100615.73
2019-05-30T14:16:25.930Z,100614.01
2019-05-30T14:18:56.755Z,100617.48
2019-05-30T14:21:27.570Z,100616.79
2019-05-30T14:23:58.387Z,100614.97
2019-05-30T14:26:29.277Z,100616.00
2019-05-30T14:29:03.974Z,100611.09
2019-05-30T14:31:35.119Z,100616.69
2019-05-30T14:34:06.101Z,100615.11
2019-05-30T14:36:37.000Z,100620.16
2019-05-30T14:39:09.044Z,100619.67
2019-05-30T14:41:40.227Z,100628.20
2019-05-30T14:44:11.434Z,100625.83
2019-05-30T14:46:42.275Z,100624.12
2019-05-30T14:49:13.127Z,100621.65
2019-05-30T14:51:44.001Z,100625.05
2019-05-30T14:54:14.820Z,100627.13
2019-05-30T14:56:46.172Z,100633.55
2019-05-30T14:59:17.402Z,100632.16
2019-05-30T15:01:48.643Z,100630.23
2019-05-30T15:04:19.465Z,100631.13
2019-05-30T15:06:50.577Z,100630.59
2019-05-30T15:09:25.916Z,100629.31
2019-05-30T15:11:53.948Z,100628.28
2019-05-30T15:14:24.812Z,100629.00
2019-05-30T15:16:55.858Z,100624.02
2019-05-30T15:19:26.981Z,100622.72
2019-05-30T15:21:57.784Z,100622.38
2019-05-30T15:24:29.089Z,100622.69
2019-05-30T15:27:00.080Z,100624.38
2019-05-30T15:29:30.879Z,100618.71
2019-05-30T15:32:01.933Z,100623.37
2019-05-30T15:34:32.965Z,100625.37
2019-05-30T15:37:04.082Z,100619.73
2019-05-30T15:39:35.138Z,100623.89
2019-05-30T15:42:07.222Z,100622.41
2019-05-30T15:44:38.043Z,100625.05
2019-05-30T15:47:09.940Z,100631.00
2019-05-30T15:49:40.772Z,100623.70
2019-05-30T15:52:13.224Z,100621.08
2019-05-30T15:54:44.121Z,100620.42
2019-05-30T15:57:15.703Z,100619.73
2019-05-30T15:59:46.498Z,100621.71
2019-05-30T16:02:18.214Z,100622.05
2019-05-30T16:04:49.051Z,100622.39
2019-05-30T16:07:20.859Z,100617.74
2019-05-30T16:09:51.901Z,100618.70
2019-05-30T16:12:24.109Z,100625.31
2019-05-30T16:14:54.975Z,100624.68
2019-05-30T16:17:26.038Z,100617.44
2019-05-30T16:19:57.266Z,100623.69
2019-05-30T16:22:28.080Z,100622.00
2019-05-30T16:24:58.965Z,100616.23
2019-05-30T16:27:31.201Z,100617.95
2019-05-30T16:30:03.040Z,100616.34
2019-05-30T16:32:35.642Z,100617.17
2019-05-30T16:35:07.025Z,100618.67
2019-05-30T16:37:38.807Z,100616.86
2019-05-30T16:40:12.599Z,100611.89
2019-05-30T16:42:43.980Z,100612.06
2019-05-30T16:45:20.274Z,100610.41
2019-05-30T16:47:49.386Z,100603.11
2019-05-30T16:50:23.438Z,100606.80
2019-05-30T16:52:55.525Z,100609.42
2019-05-30T16:55:27.584Z,100612.67
2019-05-30T16:57:58.867Z,100608.68
2019-05-30T17:00:30.038Z,100608.35
2019-05-30T17:03:01.111Z,100618.20
2019-05-30T17:05:32.315Z,100615.70
2019-05-30T17:08:03.286Z,100611.70
2019-05-30T17:10:34.161Z,100619.97
2019-05-30T17:13:05.038Z,100616.13
2019-05-30T17:15:36.136Z,100614.12
2019-05-30T17:18:07.249Z,100613.43
2019-05-30T17:20:38.118Z,100611.42
2019-05-30T17:23:09.157Z,100613.03
2019-05-30T17:25:40.517Z,100609.18
2019-05-30T17:28:14.799Z,100614.00
2019-05-30T17:30:44.411Z,100614.87
2019-05-30T17:33:17.758Z,100605.28
2019-05-30T17:35:48.397Z,100607.95
2019-05-30T17:38:20.412Z,100617.88
2019-05-30T17:40:51.251Z,100610.98
2019-05-30T17:43:22.930Z,100612.02
2019-05-30T17:45:53.846Z,100610.02
2019-05-30T17:48:25.643Z,100614.28
2019-05-30T17:50:56.636Z,100608.47
2019-05-30T17:53:28.034Z,100604.72
2019-05-30T17:55:59.582Z,100611.67
2019-05-30T17:58:30.913Z,100611.41
2019-05-30T18:01:02.047Z,100606.78
2019-05-30T18:03:32.868Z,100611.03
2019-05-30T18:06:04.048Z,100613.95
2019-05-30T18:08:34.851Z,100611.30
2019-05-30T18:11:05.710Z,100618.47
2019-05-30T18:13:37.106Z,100609.44
2019-05-30T18:16:08.047Z,100623.49
2019-05-30T18:18:38.926Z,100619.47
2019-05-30T18:21:09.962Z,100621.06
2019-05-30T18:23:40.772Z,100621.69
2019-05-30T18:26:12.533Z,100620.98
2019-05-30T18:28:43.741Z,100621.95
2019-05-30T18:31:15.011Z,100626.30
2019-05-30T18:33:46.067Z,100626.93
2019-05-30T18:36:17.160Z,100630.20
2019-05-30T18:38:48.069Z,100630.34
2019-05-30T18:41:18.930Z,100632.11
2019-05-30T18:43:49.899Z,100631.19
2019-05-30T18:46:20.762Z,100640.27
2019-05-30T18:48:51.634Z,100638.84
2019-05-30T18:51:24.063Z,100633.04
2019-05-30T18:53:55.319Z,100632.09
2019-05-30T18:56:26.598Z,100635.59
2019-05-30T18:58:57.705Z,100630.78
2019-05-30T19:01:29.639Z,100634.71
2019-05-30T19:04:01.951Z,100632.76
2019-05-30T19:06:33.820Z,100633.59
2019-05-30T19:09:06.793Z,100638.97
2019-05-30T19:11:38.354Z,100639.97
2019-05-30T19:14:09.307Z,100634.92
2019-05-30T19:16:40.435Z,100633.75
2019-05-30T19:19:11.314Z,100645.57
2019-05-30T19:21:42.101Z,100641.78
2019-05-30T19:24:13.065Z,100647.92
2019-05-30T19:26:43.882Z,100648.27
2019-05-30T19:29:14.752Z,100653.34
2019-05-30T19:31:46.418Z,100653.27
2019-05-30T19:34:17.584Z,100652.08
2019-05-30T19:36:48.625Z,100655.02
2019-05-30T19:39:19.507Z,100661.28
2019-05-30T19:41:56.698Z,100660.80
2019-05-30T19:44:22.872Z,100665.94
2019-05-30T19:46:53.918Z,100668.23
2019-05-30T19:49:26.268Z,100681.16
2019-05-30T19:51:57.342Z,100673.81
2019-05-30T19:54:28.906Z,100685.16
2019-05-30T19:57:00.287Z,100683.52
2019-05-30T19:59:31.708Z,100682.36
2019-05-30T20:02:03.029Z,100682.27
2019-05-30T20:04:34.285Z,100677.66
2019-05-30T20:07:05.141Z,100675.16
2019-05-30T20:09:36.683Z,100677.87
2019-05-30T20:12:09.210Z,100683.00
2019-05-30T20:14:41.288Z,100686.58
2019-05-30T20:17:12.109Z,100682.31
2019-05-30T20:19:42.993Z,100688.24
2019-05-30T20:22:13.785Z,100691.34
2019-05-30T20:24:44.670Z,100684.07
2019-05-30T20:27:15.758Z,100690.98
2019-05-30T20:29:46.709Z,100692.17
2019-05-30T20:32:17.539Z,100701.33
2019-05-30T20:34:48.455Z,100694.42
2019-05-30T20:37:19.874Z,100694.86
2019-05-30T20:39:51.096Z,100686.17
2019-05-30T20:42:22.170Z,100701.02
2019-05-30T20:44:53.063Z,100696.97
2019-05-30T20:47:23.985Z,100698.17
2019-05-30T20:49:55.192Z,100695.42
2019-05-30T20:52:26.514Z,100699.81
2019-05-30T20:54:57.331Z,100713.16
2019-05-30T20:57:28.468Z,100718.53
2019-05-30T20:59:59.539Z,100718.53
2019-05-30T21:02:30.412Z,100718.77
2019-05-30T21:05:01.540Z,100719.80
2019-05-30T21:07:32.713Z,100715.27
2019-05-30T21:10:04.391Z,100726.09
2019-05-30T21:12:39.327Z,100722.13
2019-05-30T21:15:08.603Z,100714.84
2019-05-30T21:17:39.766Z,100714.84
2019-05-30T21:20:11.984Z,100731.27
2019-05-30T21:22:42.804Z,100734.57
2019-05-30T21:25:14.168Z,100729.58
2019-05-30T21:27:45.301Z,100732.91
2019-05-30T21:30:17.794Z,100732.34
2019-05-30T21:32:48.923Z,100730.56
2019-05-30T21:35:19.926Z,100732.34
2019-05-30T21:37:51.057Z,100728.64
2019-05-30T21:40:21.951Z,100733.73
2019-05-30T21:43:04.730Z,100730.50
2019-05-30T21:45:25.415Z,100730.17
2019-05-30T21:47:56.304Z,100730.03
2019-05-30T21:50:27.128Z,100726.22
2019-05-30T21:52:58.222Z,100725.94
2019-05-30T21:55:29.624Z,100732.37
2019-05-30T21:58:00.434Z,100726.64
2019-05-30T22:01:36.971Z,100727.75
2019-05-30T22:04:08.378Z,100734.16
2019-05-30T22:06:40.752Z,100731.22
2019-05-30T22:09:11.786Z,100728.38
2019-05-30T22:11:43.654Z,100733.31
2019-05-30T22:14:14.774Z,100737.31
2019-05-30T22:16:46.172Z,100736.38
2019-05-30T22:19:17.621Z,100735.53
2019-05-30T22:21:48.761Z,100734.23
2019-05-30T22:24:19.654Z,100738.67
2019-05-30T22:26:50.801Z,100741.38
2019-05-30T22:29:22.130Z,100741.13
2019-05-30T22:31:53.519Z,100733.30
2019-05-30T22:34:24.490Z,100730.66
2019-05-30T22:36:55.306Z,100729.13
2019-05-30T22:39:26.894Z,100730.68
2019-05-30T22:41:57.714Z,100729.13
2019-05-30T22:44:29.559Z,100720.70
2019-05-30T22:47:00.396Z,100725.44
2019-05-30T22:49:31.689Z,100729.35
2019-05-30T22:52:02.850Z,100728.61
2019-05-30T22:54:33.886Z,100719.59
2019-05-30T22:57:04.716Z,100723.39
2019-05-30T22:59:35.522Z,100721.00
2019-05-30T23:02:06.421Z,100722.90
2019-05-30T23:04:37.696Z,100724.27
2019-05-30T23:07:08.589Z,100726.48
2019-05-30T23:09:39.465Z,100727.11
2019-05-30T23:12:10.443Z,100727.48
2019-05-30T23:14:41.325Z,100722.81
2019-05-30T23:17:12.900Z,100728.41
2019-05-30T23:19:44.101Z,100726.17
2019-05-30T23:22:15.330Z,100720.83
2019-05-30T23:24:47.143Z,100725.14
2019-05-30T23:27:18.011Z,100727.66
2019-05-30T23:29:49.742Z,100736.35
2019-05-30T23:32:21.865Z,100729.84
2019-05-30T23:34:52.746Z,100726.00
2019-05-30T23:37:23.562Z,100722.19
2019-05-30T23:39:55.001Z,100725.87
2019-05-30T23:42:25.992Z,100723.23
2019-05-30T23:44:57.516Z,100718.93
2019-05-30T23:47:28.885Z,100719.00
2019-05-30T23:50:00.409Z,100725.14
2019-05-30T23:52:31.242Z,100720.36
2019-05-30T23:55:02.497Z,100719.13
2019-05-30T23:57:34.705Z,100717.58
